sensor_id;sensor_type;location;lat;lon;timestamp;P1;durP1;ratioP1;P2;durP2;ratioP2
49131;SDS011;35149;51.196;6.204;2022-11-15T00:01:21;12.30;;;9.88;;
49131;SDS011;35149;51.196;6.204;2022-11-15T00:04:07;11.65;;;10.15;;
49131;SDS011;35149;51.196;6.204;2022-11-15T00:06:54;12.02;;;10.02;;
49131;SDS011;35149;51.196;6.204;2022-11-15T00:09:51;12.95;;;10.50;;
49131;SDS011;35149;51.196;6.204;2022-11-15T00:12:38;12.23;;;10.20;;
49131;SDS011;35149;51.196;6.204;2022-11-15T00:15:24;12.30;;;9.60;;
49131;SDS011;35149;51.196;6.204;2022-11-15T00:18:13;13.60;;;9.63;;
49131;SDS011;35149;51.196;6.204;2022-11-15T00:21:06;12.40;;;10.07;;
49131;SDS011;35149;51.196;6.204;2022-11-15T00:23:54;12.45;;;9.95;;
49131;SDS011;35149;51.196;6.204;2022-11-15T00:26:40;11.52;;;9.48;;
49131;SDS011;35149;51.196;6.204;2022-11-15T00:29:27;13.38;;;9.80;;
49131;SDS011;35149;51.196;6.204;2022-11-15T00:32:12;13.82;;;10.27;;
49131;SDS011;35149;51.196;6.204;2022-11-15T00:34:57;13.00;;;10.00;;
49131;SDS011;35149;51.196;6.204;2022-11-15T00:37:43;12.80;;;9.93;;
49131;SDS011;35149;51.196;6.204;2022-11-15T00:40:34;10.20;;;9.00;;
49131;SDS011;35149;51.196;6.204;2022-11-15T00:43:20;12.60;;;9.95;;
49131;SDS011;35149;51.196;6.204;2022-11-15T00:46:05;12.00;;;9.57;;
49131;SDS011;35149;51.196;6.204;2022-11-15T00:48:55;13.45;;;10.02;;
49131;SDS011;35149;51.196;6.204;2022-11-15T00:51:40;13.57;;;10.25;;
49131;SDS011;35149;51.196;6.204;2022-11-15T00:54:25;12.75;;;9.88;;
49131;SDS011;35149;51.196;6.204;2022-11-15T00:57:17;10.82;;;9.60;;
49131;SDS011;35149;51.196;6.204;2022-11-15T01:00:02;14.68;;;10.73;;
49131;SDS011;35149;51.196;6.204;2022-11-15T01:02:49;13.07;;;9.90;;
49131;SDS011;35149;51.196;6.204;2022-11-15T01:05:37;11.88;;;9.95;;
49131;SDS011;35149;51.196;6.204;2022-11-15T01:08:22;13.85;;;10.25;;
49131;SDS011;35149;51.196;6.204;2022-11-15T01:11:09;11.77;;;10.07;;
49131;SDS011;35149;51.196;6.204;2022-11-15T01:13:58;12.93;;;9.77;;
49131;SDS011;35149;51.196;6.204;2022-11-15T01:16:43;13.27;;;9.93;;
49131;SDS011;35149;51.196;6.204;2022-11-15T01:19:31;11.63;;;9.75;;
49131;SDS011;35149;51.196;6.204;2022-11-15T01:22:17;12.75;;;10.05;;
49131;SDS011;35149;51.196;6.204;2022-11-15T01:25:04;11.75;;;9.65;;
49131;SDS011;35149;51.196;6.204;2022-11-15T01:27:53;9.68;;;8.50;;
49131;SDS011;35149;51.196;6.204;2022-11-15T01:30:42;12.20;;;9.13;;
49131;SDS011;35149;51.196;6.204;2022-11-15T01:33:28;11.45;;;9.00;;
49131;SDS011;35149;51.196;6.204;2022-11-15T01:36:16;12.35;;;10.00;;
49131;SDS011;35149;51.196;6.204;2022-11-15T01:39:07;12.32;;;9.95;;
49131;SDS011;35149;51.196;6.204;2022-11-15T01:41:52;10.50;;;9.40;;
49131;SDS011;35149;51.196;6.204;2022-11-15T01:44:48;11.15;;;9.40;;
49131;SDS011;35149;51.196;6.204;2022-11-15T01:47:40;13.43;;;8.93;;
49131;SDS011;35149;51.196;6.204;2022-11-15T01:50:35;11.35;;;9.70;;
49131;SDS011;35149;51.196;6.204;2022-11-15T01:53:22;11.80;;;9.55;;
49131;SDS011;35149;51.196;6.204;2022-11-15T01:56:11;13.90;;;9.50;;
49131;SDS011;35149;51.196;6.204;2022-11-15T01:59:03;13.40;;;10.15;;
49131;SDS011;35149;51.196;6.204;2022-11-15T02:01:50;12.68;;;9.45;;
49131;SDS011;35149;51.196;6.204;2022-11-15T02:04:37;10.82;;;8.27;;
49131;SDS011;35149;51.196;6.204;2022-11-15T02:07:33;11.98;;;9.57;;
49131;SDS011;35149;51.196;6.204;2022-11-15T02:10:23;11.05;;;9.40;;
49131;SDS011;35149;51.196;6.204;2022-11-15T02:13:09;11.85;;;9.70;;
49131;SDS011;35149;51.196;6.204;2022-11-15T02:19:08;12.05;;;9.13;;
49131;SDS011;35149;51.196;6.204;2022-11-15T02:35:11;10.98;;;8.60;;
49131;SDS011;35149;51.196;6.204;2022-11-15T02:38:29;10.18;;;8.38;;
49131;SDS011;35149;51.196;6.204;2022-11-15T02:41:21;10.10;;;7.53;;
49131;SDS011;35149;51.196;6.204;2022-11-15T02:44:21;9.02;;;8.07;;
49131;SDS011;35149;51.196;6.204;2022-11-15T02:47:14;12.73;;;8.82;;
49131;SDS011;35149;51.196;6.204;2022-11-15T02:50:08;11.32;;;8.13;;
49131;SDS011;35149;51.196;6.204;2022-11-15T02:53:02;10.20;;;7.80;;
49131;SDS011;35149;51.196;6.204;2022-11-15T02:55:52;9.25;;;8.30;;
49131;SDS011;35149;51.196;6.204;2022-11-15T03:02:08;10.13;;;7.68;;
49131;SDS011;35149;51.196;6.204;2022-11-15T03:05:04;8.65;;;7.18;;
49131;SDS011;35149;51.196;6.204;2022-11-15T03:11:17;9.57;;;7.65;;
49131;SDS011;35149;51.196;6.204;2022-11-15T03:14:10;9.93;;;7.03;;
49131;SDS011;35149;51.196;6.204;2022-11-15T03:17:13;10.95;;;8.05;;
49131;SDS011;35149;51.196;6.204;2022-11-15T03:20:04;8.50;;;7.18;;
49131;SDS011;35149;51.196;6.204;2022-11-15T03:22:55;9.68;;;7.40;;
49131;SDS011;35149;51.196;6.204;2022-11-15T03:25:45;10.02;;;8.27;;
49131;SDS011;35149;51.196;6.204;2022-11-15T03:28:38;11.35;;;7.53;;
49131;SDS011;35149;51.196;6.204;2022-11-15T03:31:36;8.20;;;6.55;;
49131;SDS011;35149;51.196;6.204;2022-11-15T03:34:39;7.22;;;6.20;;
49131;SDS011;35149;51.196;6.204;2022-11-15T03:37:31;8.15;;;6.60;;
49131;SDS011;35149;51.196;6.204;2022-11-15T03:46:33;8.55;;;6.53;;
49131;SDS011;35149;51.196;6.204;2022-11-15T03:52:24;7.38;;;6.22;;
49131;SDS011;35149;51.196;6.204;2022-11-15T03:55:11;7.68;;;6.95;;
49131;SDS011;35149;51.196;6.204;2022-11-15T03:58:02;10.32;;;6.60;;
49131;SDS011;35149;51.196;6.204;2022-11-15T04:00:47;7.18;;;6.47;;
49131;SDS011;35149;51.196;6.204;2022-11-15T04:03:36;8.05;;;6.90;;
49131;SDS011;35149;51.196;6.204;2022-11-15T04:06:35;8.32;;;7.10;;
49131;SDS011;35149;51.196;6.204;2022-11-15T04:09:20;7.55;;;6.55;;
49131;SDS011;35149;51.196;6.204;2022-11-15T04:12:07;7.53;;;6.82;;
49131;SDS011;35149;51.196;6.204;2022-11-15T04:14:54;9.27;;;7.45;;
49131;SDS011;35149;51.196;6.204;2022-11-15T04:17:53;8.25;;;6.38;;
49131;SDS011;35149;51.196;6.204;2022-11-15T04:20:42;9.25;;;6.93;;
49131;SDS011;35149;51.196;6.204;2022-11-15T04:23:46;7.55;;;6.43;;
49131;SDS011;35149;51.196;6.204;2022-11-15T04:26:49;9.02;;;6.95;;
49131;SDS011;35149;51.196;6.204;2022-11-15T04:29:37;10.55;;;7.80;;
49131;SDS011;35149;51.196;6.204;2022-11-15T04:32:22;9.88;;;7.85;;
49131;SDS011;35149;51.196;6.204;2022-11-15T04:35:08;7.65;;;6.88;;
49131;SDS011;35149;51.196;6.204;2022-11-15T04:37:59;9.80;;;7.45;;
49131;SDS011;35149;51.196;6.204;2022-11-15T04:40:49;10.48;;;8.27;;
49131;SDS011;35149;51.196;6.204;2022-11-15T04:43:37;9.23;;;7.10;;
49131;SDS011;35149;51.196;6.204;2022-11-15T04:46:25;9.98;;;6.53;;
49131;SDS011;35149;51.196;6.204;2022-11-15T04:49:12;9.18;;;6.72;;
49131;SDS011;35149;51.196;6.204;2022-11-15T04:51:57;8.65;;;6.43;;
49131;SDS011;35149;51.196;6.204;2022-11-15T04:54:48;8.27;;;7.22;;
49131;SDS011;35149;51.196;6.204;2022-11-15T04:57:33;7.10;;;6.40;;
49131;SDS011;35149;51.196;6.204;2022-11-15T05:00:21;9.25;;;6.82;;
49131;SDS011;35149;51.196;6.204;2022-11-15T05:03:09;7.60;;;6.50;;
49131;SDS011;35149;51.196;6.204;2022-11-15T05:06:18;7.60;;;6.50;;
49131;SDS011;35149;51.196;6.204;2022-11-15T05:09:04;6.90;;;6.20;;
49131;SDS011;35149;51.196;6.204;2022-11-15T05:11:51;7.38;;;6.65;;
49131;SDS011;35149;51.196;6.204;2022-11-15T05:14:37;7.50;;;6.57;;
49131;SDS011;35149;51.196;6.204;2022-11-15T05:17:22;7.25;;;6.28;;
49131;SDS011;35149;51.196;6.204;2022-11-15T05:20:08;6.22;;;5.55;;
49131;SDS011;35149;51.196;6.204;2022-11-15T05:22:53;6.22;;;5.50;;
49131;SDS011;35149;51.196;6.204;2022-11-15T05:25:40;8.27;;;6.10;;
49131;SDS011;35149;51.196;6.204;2022-11-15T05:28:27;6.78;;;6.07;;
49131;SDS011;35149;51.196;6.204;2022-11-15T05:31:17;6.95;;;6.20;;
49131;SDS011;35149;51.196;6.204;2022-11-15T05:34:02;8.27;;;5.78;;
49131;SDS011;35149;51.196;6.204;2022-11-15T05:36:48;6.93;;;6.22;;
49131;SDS011;35149;51.196;6.204;2022-11-15T05:39:36;6.57;;;5.90;;
49131;SDS011;35149;51.196;6.204;2022-11-15T05:42:21;6.65;;;5.85;;
49131;SDS011;35149;51.196;6.204;2022-11-15T05:45:07;6.38;;;5.60;;
49131;SDS011;35149;51.196;6.204;2022-11-15T05:47:54;7.40;;;5.75;;
49131;SDS011;35149;51.196;6.204;2022-11-15T05:50:47;5.85;;;5.25;;
49131;SDS011;35149;51.196;6.204;2022-11-15T05:53:34;6.03;;;5.13;;
49131;SDS011;35149;51.196;6.204;2022-11-15T05:56:21;5.05;;;4.55;;
49131;SDS011;35149;51.196;6.204;2022-11-15T05:59:07;5.55;;;4.85;;
49131;SDS011;35149;51.196;6.204;2022-11-15T06:01:57;5.38;;;4.40;;
49131;SDS011;35149;51.196;6.204;2022-11-15T06:04:43;6.40;;;4.18;;
49131;SDS011;35149;51.196;6.204;2022-11-15T06:07:29;5.18;;;4.47;;
49131;SDS011;35149;51.196;6.204;2022-11-15T06:10:18;3.83;;;3.53;;
49131;SDS011;35149;51.196;6.204;2022-11-15T06:13:04;4.03;;;3.45;;
49131;SDS011;35149;51.196;6.204;2022-11-15T06:15:57;3.72;;;3.17;;
49131;SDS011;35149;51.196;6.204;2022-11-15T06:18:43;4.05;;;3.65;;
49131;SDS011;35149;51.196;6.204;2022-11-15T06:21:31;4.05;;;3.65;;
49131;SDS011;35149;51.196;6.204;2022-11-15T06:24:16;3.00;;;2.75;;
49131;SDS011;35149;51.196;6.204;2022-11-15T06:27:06;3.40;;;3.08;;
49131;SDS011;35149;51.196;6.204;2022-11-15T06:29:53;3.72;;;3.30;;
49131;SDS011;35149;51.196;6.204;2022-11-15T06:32:42;3.17;;;2.88;;
49131;SDS011;35149;51.196;6.204;2022-11-15T06:35:27;3.88;;;3.22;;
49131;SDS011;35149;51.196;6.204;2022-11-15T06:38:12;2.85;;;2.58;;
49131;SDS011;35149;51.196;6.204;2022-11-15T06:41:06;1.50;;;1.35;;
49131;SDS011;35149;51.196;6.204;2022-11-15T06:43:53;2.25;;;1.90;;
49131;SDS011;35149;51.196;6.204;2022-11-15T06:46:38;3.15;;;2.05;;
49131;SDS011;35149;51.196;6.204;2022-11-15T06:49:29;1.35;;;1.25;;
49131;SDS011;35149;51.196;6.204;2022-11-15T06:52:19;1.52;;;1.40;;
49131;SDS011;35149;51.196;6.204;2022-11-15T06:55:06;2.13;;;1.92;;
49131;SDS011;35149;51.196;6.204;2022-11-15T06:57:52;2.90;;;1.40;;
49131;SDS011;35149;51.196;6.204;2022-11-15T07:00:38;1.70;;;1.60;;
49131;SDS011;35149;51.196;6.204;2022-11-15T07:03:23;2.38;;;1.60;;
49131;SDS011;35149;51.196;6.204;2022-11-15T07:06:09;1.35;;;1.10;;
49131;SDS011;35149;51.196;6.204;2022-11-15T07:08:54;1.15;;;1.05;;
49131;SDS011;35149;51.196;6.204;2022-11-15T07:11:40;1.48;;;1.33;;
49131;SDS011;35149;51.196;6.204;2022-11-15T07:14:28;5.32;;;2.67;;
49131;SDS011;35149;51.196;6.204;2022-11-15T07:17:17;3.25;;;2.47;;
49131;SDS011;35149;51.196;6.204;2022-11-15T07:20:03;3.88;;;2.50;;
49131;SDS011;35149;51.196;6.204;2022-11-15T07:22:49;2.75;;;2.22;;
49131;SDS011;35149;51.196;6.204;2022-11-15T07:25:34;4.03;;;1.90;;
49131;SDS011;35149;51.196;6.204;2022-11-15T07:28:19;2.08;;;1.60;;
49131;SDS011;35149;51.196;6.204;2022-11-15T07:31:08;1.77;;;1.67;;
49131;SDS011;35149;51.196;6.204;2022-11-15T07:33:55;1.60;;;1.50;;
49131;SDS011;35149;51.196;6.204;2022-11-15T07:36:43;2.45;;;1.63;;
49131;SDS011;35149;51.196;6.204;2022-11-15T07:39:32;2.65;;;1.70;;
49131;SDS011;35149;51.196;6.204;2022-11-15T07:42:18;2.28;;;1.40;;
49131;SDS011;35149;51.196;6.204;2022-11-15T07:45:22;1.48;;;1.27;;
49131;SDS011;35149;51.196;6.204;2022-11-15T07:48:11;1.15;;;1.08;;
49131;SDS011;35149;51.196;6.204;2022-11-15T07:50:56;2.63;;;1.50;;
49131;SDS011;35149;51.196;6.204;2022-11-15T07:53:42;2.95;;;1.70;;
49131;SDS011;35149;51.196;6.204;2022-11-15T07:56:28;3.13;;;1.50;;
49131;SDS011;35149;51.196;6.204;2022-11-15T07:59:16;1.45;;;1.27;;
49131;SDS011;35149;51.196;6.204;2022-11-15T08:02:04;1.92;;;1.33;;
49131;SDS011;35149;51.196;6.204;2022-11-15T08:04:50;1.13;;;0.98;;
49131;SDS011;35149;51.196;6.204;2022-11-15T08:07:35;1.52;;;0.98;;
49131;SDS011;35149;51.196;6.204;2022-11-15T08:10:22;1.33;;;0.90;;
49131;SDS011;35149;51.196;6.204;2022-11-15T08:13:09;2.35;;;1.00;;
49131;SDS011;35149;51.196;6.204;2022-11-15T08:15:57;2.17;;;1.15;;
49131;SDS011;35149;51.196;6.204;2022-11-15T08:18:45;3.15;;;0.93;;
49131;SDS011;35149;51.196;6.204;2022-11-15T08:21:36;1.90;;;0.90;;
49131;SDS011;35149;51.196;6.204;2022-11-15T08:24:21;1.27;;;0.50;;
49131;SDS011;35149;51.196;6.204;2022-11-15T08:27:09;2.00;;;1.00;;
49131;SDS011;35149;51.196;6.204;2022-11-15T08:30:04;2.17;;;0.70;;
49131;SDS011;35149;51.196;6.204;2022-11-15T08:32:55;1.38;;;1.05;;
49131;SDS011;35149;51.196;6.204;2022-11-15T08:35:42;2.17;;;0.80;;
49131;SDS011;35149;51.196;6.204;2022-11-15T08:38:28;1.08;;;0.80;;
49131;SDS011;35149;51.196;6.204;2022-11-15T08:41:18;0.80;;;0.80;;
49131;SDS011;35149;51.196;6.204;2022-11-15T08:44:11;0.93;;;0.77;;
49131;SDS011;35149;51.196;6.204;2022-11-15T08:46:58;1.30;;;1.20;;
49131;SDS011;35149;51.196;6.204;2022-11-15T08:49:43;2.10;;;0.68;;
49131;SDS011;35149;51.196;6.204;2022-11-15T08:52:29;1.20;;;1.00;;
49131;SDS011;35149;51.196;6.204;2022-11-15T08:55:14;1.58;;;0.80;;
49131;SDS011;35149;51.196;6.204;2022-11-15T08:58:04;0.85;;;0.75;;
49131;SDS011;35149;51.196;6.204;2022-11-15T09:00:50;1.15;;;1.00;;
49131;SDS011;35149;51.196;6.204;2022-11-15T09:03:39;0.70;;;0.70;;
49131;SDS011;35149;51.196;6.204;2022-11-15T09:06:27;1.80;;;0.60;;
49131;SDS011;35149;51.196;6.204;2022-11-15T09:09:16;0.93;;;0.45;;
49131;SDS011;35149;51.196;6.204;2022-11-15T09:12:02;1.08;;;0.60;;
49131;SDS011;35149;51.196;6.204;2022-11-15T09:14:50;0.75;;;0.47;;
49131;SDS011;35149;51.196;6.204;2022-11-15T09:17:35;0.82;;;0.57;;
49131;SDS011;35149;51.196;6.204;2022-11-15T09:20:23;1.20;;;0.70;;
49131;SDS011;35149;51.196;6.204;2022-11-15T09:23:10;5.25;;;0.70;;
49131;SDS011;35149;51.196;6.204;2022-11-15T09:25:59;3.00;;;0.82;;
49131;SDS011;35149;51.196;6.204;2022-11-15T09:28:45;1.27;;;0.77;;
49131;SDS011;35149;51.196;6.204;2022-11-15T09:31:31;1.08;;;0.50;;
49131;SDS011;35149;51.196;6.204;2022-11-15T09:34:19;1.50;;;0.68;;
49131;SDS011;35149;51.196;6.204;2022-11-15T09:37:08;2.40;;;0.70;;
49131;SDS011;35149;51.196;6.204;2022-11-15T09:39:53;2.40;;;0.82;;
49131;SDS011;35149;51.196;6.204;2022-11-15T09:42:48;1.80;;;0.88;;
49131;SDS011;35149;51.196;6.204;2022-11-15T09:46:00;2.00;;;1.48;;
49131;SDS011;35149;51.196;6.204;2022-11-15T09:49:07;1.58;;;0.68;;
49131;SDS011;35149;51.196;6.204;2022-11-15T09:51:53;3.45;;;0.90;;
49131;SDS011;35149;51.196;6.204;2022-11-15T09:54:31;1.08;;;0.70;;
49131;SDS011;35149;51.196;6.204;2022-11-15T09:57:21;1.80;;;1.35;;
49131;SDS011;35149;51.196;6.204;2022-11-15T10:05:47;0.77;;;0.70;;
49131;SDS011;35149;51.196;6.204;2022-11-15T10:08:25;2.80;;;1.00;;
49131;SDS011;35149;51.196;6.204;2022-11-15T10:11:04;1.75;;;0.85;;
49131;SDS011;35149;51.196;6.204;2022-11-15T10:14:11;2.97;;;0.70;;
49131;SDS011;35149;51.196;6.204;2022-11-15T10:16:53;1.83;;;0.90;;
49131;SDS011;35149;51.196;6.204;2022-11-15T10:22:24;1.35;;;0.80;;
49131;SDS011;35149;51.196;6.204;2022-11-15T10:25:10;1.58;;;0.85;;
49131;SDS011;35149;51.196;6.204;2022-11-15T10:27:43;1.33;;;0.60;;
49131;SDS011;35149;51.196;6.204;2022-11-15T10:30:13;1.50;;;0.73;;
49131;SDS011;35149;51.196;6.204;2022-11-15T10:32:44;3.55;;;0.88;;
49131;SDS011;35149;51.196;6.204;2022-11-15T10:35:17;1.33;;;0.75;;
49131;SDS011;35149;51.196;6.204;2022-11-15T10:40:20;1.25;;;0.85;;
49131;SDS011;35149;51.196;6.204;2022-11-15T10:43:06;1.95;;;0.88;;
49131;SDS011;35149;51.196;6.204;2022-11-15T10:45:48;1.13;;;0.70;;
49131;SDS011;35149;51.196;6.204;2022-11-15T10:50:49;1.83;;;0.68;;
49131;SDS011;35149;51.196;6.204;2022-11-15T10:53:27;2.83;;;0.70;;
49131;SDS011;35149;51.196;6.204;2022-11-15T10:56:11;1.27;;;0.73;;
49131;SDS011;35149;51.196;6.204;2022-11-15T10:58:42;1.70;;;0.40;;
49131;SDS011;35149;51.196;6.204;2022-11-15T11:03:58;0.70;;;0.60;;
49131;SDS011;35149;51.196;6.204;2022-11-15T11:07:00;2.85;;;0.73;;
49131;SDS011;35149;51.196;6.204;2022-11-15T11:12:03;0.60;;;0.40;;
49131;SDS011;35149;51.196;6.204;2022-11-15T11:14:56;0.57;;;0.50;;
49131;SDS011;35149;51.196;6.204;2022-11-15T11:20:41;0.70;;;0.65;;
49131;SDS011;35149;51.196;6.204;2022-11-15T11:23:44;1.15;;;0.57;;
49131;SDS011;35149;51.196;6.204;2022-11-15T11:29:15;1.48;;;0.60;;
49131;SDS011;35149;51.196;6.204;2022-11-15T11:41:17;0.40;;;0.25;;
49131;SDS011;35149;51.196;6.204;2022-11-15T11:44:34;0.50;;;0.50;;
49131;SDS011;35149;51.196;6.204;2022-11-15T11:47:31;7.43;;;3.33;;
49131;SDS011;35149;51.196;6.204;2022-11-15T11:55:54;1.17;;;0.30;;
49131;SDS011;35149;51.196;6.204;2022-11-15T11:58:38;2.38;;;0.50;;
49131;SDS011;35149;51.196;6.204;2022-11-15T12:03:57;1.15;;;0.55;;
49131;SDS011;35149;51.196;6.204;2022-11-15T12:06:53;1.75;;;0.40;;
49131;SDS011;35149;51.196;6.204;2022-11-15T12:13:10;0.80;;;0.45;;
49131;SDS011;35149;51.196;6.204;2022-11-15T12:15:51;0.93;;;0.52;;
49131;SDS011;35149;51.196;6.204;2022-11-15T12:18:41;1.30;;;0.38;;
49131;SDS011;35149;51.196;6.204;2022-11-15T12:23:53;1.13;;;0.40;;
49131;SDS011;35149;51.196;6.204;2022-11-15T12:26:35;0.57;;;0.30;;
49131;SDS011;35149;51.196;6.204;2022-11-15T12:29:16;1.92;;;0.28;;
49131;SDS011;35149;51.196;6.204;2022-11-15T12:32:02;1.55;;;1.10;;
49131;SDS011;35149;51.196;6.204;2022-11-15T12:34:51;1.73;;;0.47;;
49131;SDS011;35149;51.196;6.204;2022-11-15T12:43:00;1.42;;;0.60;;
49131;SDS011;35149;51.196;6.204;2022-11-15T12:46:03;2.10;;;0.50;;
49131;SDS011;35149;51.196;6.204;2022-11-15T12:51:05;2.95;;;0.40;;
49131;SDS011;35149;51.196;6.204;2022-11-15T12:53:38;1.00;;;0.38;;
49131;SDS011;35149;51.196;6.204;2022-11-15T12:58:56;3.20;;;0.40;;
49131;SDS011;35149;51.196;6.204;2022-11-15T13:04:24;0.73;;;0.40;;
49131;SDS011;35149;51.196;6.204;2022-11-15T13:07:01;0.83;;;0.43;;
49131;SDS011;35149;51.196;6.204;2022-11-15T13:09:53;0.93;;;0.50;;
49131;SDS011;35149;51.196;6.204;2022-11-15T13:17:53;3.03;;;0.55;;
49131;SDS011;35149;51.196;6.204;2022-11-15T13:20:29;1.30;;;0.65;;
49131;SDS011;35149;51.196;6.204;2022-11-15T13:26:14;1.70;;;0.80;;
49131;SDS011;35149;51.196;6.204;2022-11-15T13:28:53;3.35;;;0.70;;
49131;SDS011;35149;51.196;6.204;2022-11-15T13:31:28;1.98;;;0.80;;
49131;SDS011;35149;51.196;6.204;2022-11-15T13:37:12;1.77;;;0.60;;
49131;SDS011;35149;51.196;6.204;2022-11-15T13:40:10;4.53;;;0.57;;
49131;SDS011;35149;51.196;6.204;2022-11-15T13:42:49;1.52;;;0.90;;
49131;SDS011;35149;51.196;6.204;2022-11-15T13:45:37;4.13;;;0.82;;
49131;SDS011;35149;51.196;6.204;2022-11-15T13:48:07;2.63;;;0.95;;
49131;SDS011;35149;51.196;6.204;2022-11-15T13:50:39;2.05;;;0.73;;
49131;SDS011;35149;51.196;6.204;2022-11-15T13:53:27;2.28;;;0.60;;
49131;SDS011;35149;51.196;6.204;2022-11-15T13:56:11;3.42;;;0.55;;
49131;SDS011;35149;51.196;6.204;2022-11-15T13:58:51;2.92;;;0.82;;
49131;SDS011;35149;51.196;6.204;2022-11-15T14:01:31;1.67;;;0.50;;
49131;SDS011;35149;51.196;6.204;2022-11-15T14:04:03;2.42;;;1.05;;
49131;SDS011;35149;51.196;6.204;2022-11-15T14:06:42;0.82;;;0.60;;
49131;SDS011;35149;51.196;6.204;2022-11-15T14:09:33;2.33;;;0.80;;
49131;SDS011;35149;51.196;6.204;2022-11-15T14:15:28;1.60;;;0.70;;
49131;SDS011;35149;51.196;6.204;2022-11-15T14:18:37;1.20;;;0.47;;
49131;SDS011;35149;51.196;6.204;2022-11-15T14:21:15;0.93;;;0.45;;
49131;SDS011;35149;51.196;6.204;2022-11-15T14:23:46;2.17;;;1.02;;
49131;SDS011;35149;51.196;6.204;2022-11-15T14:26:31;1.63;;;1.45;;
49131;SDS011;35149;51.196;6.204;2022-11-15T14:29:27;2.92;;;1.00;;
49131;SDS011;35149;51.196;6.204;2022-11-15T14:32:14;3.30;;;0.80;;
49131;SDS011;35149;51.196;6.204;2022-11-15T14:35:01;4.57;;;0.95;;
49131;SDS011;35149;51.196;6.204;2022-11-15T14:37:37;3.08;;;1.13;;
49131;SDS011;35149;51.196;6.204;2022-11-15T14:40:12;2.28;;;0.75;;
49131;SDS011;35149;51.196;6.204;2022-11-15T14:42:49;3.63;;;1.90;;
49131;SDS011;35149;51.196;6.204;2022-11-15T14:45:29;4.50;;;2.20;;
49131;SDS011;35149;51.196;6.204;2022-11-15T14:48:03;4.43;;;2.33;;
49131;SDS011;35149;51.196;6.204;2022-11-15T14:50:34;3.03;;;1.40;;
49131;SDS011;35149;51.196;6.204;2022-11-15T14:53:22;4.47;;;1.05;;
49131;SDS011;35149;51.196;6.204;2022-11-15T14:55:52;3.93;;;1.40;;
49131;SDS011;35149;51.196;6.204;2022-11-15T14:58:23;2.83;;;1.58;;
49131;SDS011;35149;51.196;6.204;2022-11-15T15:00:59;2.78;;;0.93;;
49131;SDS011;35149;51.196;6.204;2022-11-15T15:03:31;1.00;;;0.90;;
49131;SDS011;35149;51.196;6.204;2022-11-15T15:06:04;3.20;;;1.30;;
49131;SDS011;35149;51.196;6.204;2022-11-15T15:08:45;2.22;;;1.27;;
49131;SDS011;35149;51.196;6.204;2022-11-15T15:11:25;3.60;;;1.45;;
49131;SDS011;35149;51.196;6.204;2022-11-15T15:13:56;2.03;;;1.10;;
49131;SDS011;35149;51.196;6.204;2022-11-15T15:16:33;1.15;;;0.90;;
49131;SDS011;35149;51.196;6.204;2022-11-15T15:19:09;4.15;;;1.25;;
49131;SDS011;35149;51.196;6.204;2022-11-15T15:21:36;1.27;;;1.10;;
49131;SDS011;35149;51.196;6.204;2022-11-15T15:24:13;3.20;;;2.13;;
49131;SDS011;35149;51.196;6.204;2022-11-15T15:26:42;1.20;;;1.10;;
49131;SDS011;35149;51.196;6.204;2022-11-15T15:29:13;2.30;;;1.23;;
49131;SDS011;35149;51.196;6.204;2022-11-15T15:32:02;1.70;;;1.50;;
49131;SDS011;35149;51.196;6.204;2022-11-15T15:34:37;3.22;;;1.67;;
49131;SDS011;35149;51.196;6.204;2022-11-15T15:39:55;2.78;;;1.80;;
49131;SDS011;35149;51.196;6.204;2022-11-15T15:42:52;6.22;;;3.65;;
49131;SDS011;35149;51.196;6.204;2022-11-15T15:45:24;7.53;;;4.35;;
49131;SDS011;35149;51.196;6.204;2022-11-15T15:48:03;6.70;;;4.22;;
49131;SDS011;35149;51.196;6.204;2022-11-15T15:50:37;4.75;;;2.83;;
49131;SDS011;35149;51.196;6.204;2022-11-15T15:53:07;4.70;;;2.67;;
49131;SDS011;35149;51.196;6.204;2022-11-15T15:55:38;6.15;;;3.53;;
49131;SDS011;35149;51.196;6.204;2022-11-15T15:58:06;4.28;;;2.00;;
49131;SDS011;35149;51.196;6.204;2022-11-15T16:00:36;3.60;;;2.80;;
49131;SDS011;35149;51.196;6.204;2022-11-15T16:03:08;3.40;;;2.22;;
49131;SDS011;35149;51.196;6.204;2022-11-15T16:05:39;3.08;;;2.28;;
49131;SDS011;35149;51.196;6.204;2022-11-15T16:08:20;3.88;;;2.45;;
49131;SDS011;35149;51.196;6.204;2022-11-15T16:10:58;2.72;;;1.42;;
49131;SDS011;35149;51.196;6.204;2022-11-15T16:13:36;3.03;;;1.85;;
49131;SDS011;35149;51.196;6.204;2022-11-15T16:16:09;2.85;;;1.88;;
49131;SDS011;35149;51.196;6.204;2022-11-15T16:18:44;3.38;;;2.00;;
49131;SDS011;35149;51.196;6.204;2022-11-15T16:21:21;2.92;;;2.17;;
49131;SDS011;35149;51.196;6.204;2022-11-15T16:23:59;1.63;;;1.50;;
49131;SDS011;35149;51.196;6.204;2022-11-15T16:26:28;1.70;;;1.60;;
49131;SDS011;35149;51.196;6.204;2022-11-15T16:29:15;2.15;;;1.98;;
49131;SDS011;35149;51.196;6.204;2022-11-15T16:31:47;2.15;;;1.95;;
49131;SDS011;35149;51.196;6.204;2022-11-15T16:34:22;2.95;;;1.85;;
49131;SDS011;35149;51.196;6.204;2022-11-15T16:36:56;2.25;;;1.50;;
49131;SDS011;35149;51.196;6.204;2022-11-15T16:39:30;3.75;;;2.35;;
49131;SDS011;35149;51.196;6.204;2022-11-15T16:42:02;2.72;;;1.92;;
49131;SDS011;35149;51.196;6.204;2022-11-15T16:44:39;3.00;;;1.67;;
49131;SDS011;35149;51.196;6.204;2022-11-15T16:47:16;3.10;;;2.22;;
49131;SDS011;35149;51.196;6.204;2022-11-15T16:53:11;2.88;;;2.38;;
49131;SDS011;35149;51.196;6.204;2022-11-15T16:55:39;3.53;;;2.58;;
49131;SDS011;35149;51.196;6.204;2022-11-15T16:58:07;3.88;;;2.85;;
49131;SDS011;35149;51.196;6.204;2022-11-15T17:00:52;5.40;;;3.40;;
49131;SDS011;35149;51.196;6.204;2022-11-15T17:03:31;3.20;;;2.35;;
49131;SDS011;35149;51.196;6.204;2022-11-15T17:06:00;2.63;;;2.42;;
49131;SDS011;35149;51.196;6.204;2022-11-15T17:08:32;3.35;;;2.35;;
49131;SDS011;35149;51.196;6.204;2022-11-15T17:13:35;2.47;;;2.08;;
49131;SDS011;35149;51.196;6.204;2022-11-15T17:16:11;3.05;;;2.67;;
49131;SDS011;35149;51.196;6.204;2022-11-15T17:18:48;3.05;;;2.75;;
49131;SDS011;35149;51.196;6.204;2022-11-15T17:21:19;3.33;;;2.60;;
49131;SDS011;35149;51.196;6.204;2022-11-15T17:24:21;2.95;;;2.50;;
49131;SDS011;35149;51.196;6.204;2022-11-15T17:27:04;3.05;;;2.42;;
49131;SDS011;35149;51.196;6.204;2022-11-15T17:29:33;3.40;;;2.88;;
49131;SDS011;35149;51.196;6.204;2022-11-15T17:32:08;3.92;;;2.65;;
49131;SDS011;35149;51.196;6.204;2022-11-15T17:34:39;4.97;;;2.85;;
49131;SDS011;35149;51.196;6.204;2022-11-15T17:37:11;2.88;;;2.40;;
49131;SDS011;35149;51.196;6.204;2022-11-15T17:39:47;4.03;;;2.60;;
49131;SDS011;35149;51.196;6.204;2022-11-15T17:42:21;3.75;;;2.40;;
49131;SDS011;35149;51.196;6.204;2022-11-15T17:44:52;3.50;;;2.83;;
49131;SDS011;35149;51.196;6.204;2022-11-15T17:47:26;5.68;;;3.40;;
49131;SDS011;35149;51.196;6.204;2022-11-15T17:49:59;6.55;;;3.95;;
49131;SDS011;35149;51.196;6.204;2022-11-15T17:52:30;5.13;;;3.90;;
49131;SDS011;35149;51.196;6.204;2022-11-15T17:55:06;7.43;;;3.67;;
49131;SDS011;35149;51.196;6.204;2022-11-15T17:57:55;6.43;;;3.75;;
49131;SDS011;35149;51.196;6.204;2022-11-15T18:00:25;7.78;;;4.25;;
49131;SDS011;35149;51.196;6.204;2022-11-15T18:02:58;4.93;;;3.55;;
49131;SDS011;35149;51.196;6.204;2022-11-15T18:05:37;6.47;;;4.35;;
49131;SDS011;35149;51.196;6.204;2022-11-15T18:08:06;4.57;;;4.18;;
49131;SDS011;35149;51.196;6.204;2022-11-15T18:10:40;7.18;;;3.90;;
49131;SDS011;35149;51.196;6.204;2022-11-15T18:13:20;4.45;;;4.05;;
49131;SDS011;35149;51.196;6.204;2022-11-15T18:15:53;5.10;;;4.38;;
49131;SDS011;35149;51.196;6.204;2022-11-15T18:18:24;3.28;;;2.97;;
49131;SDS011;35149;51.196;6.204;2022-11-15T18:21:17;4.50;;;2.83;;
49131;SDS011;35149;51.196;6.204;2022-11-15T18:23:52;4.93;;;3.28;;
49131;SDS011;35149;51.196;6.204;2022-11-15T18:26:28;3.70;;;2.97;;